Nearby METAR Reports

 

KMTN - Baltimore/Martin, Maryland, USA
Distance from station: SSE 8mi, 13km
Updated: Sun, 26-Apr-2015 2:06am EDT
Mostly cloudy
Mostly cloudy
 Wind from W
Wind: W 3 mph , 6 km/h
Temperature: 45°F , 7°C
Dew Point: 37°F , 3°C
Humidity: 76%
Barometer: 29.71 inHg , 1006.1 hPa
Clouds: Mostly cloudy
Visibility: 10 miles , 16 km
Cloud details: Mostly cloudy 8000 ft
2015/04/26 06:06 KMTN 260606Z AUTO 26003KT 10SM BKN080 07/03 A2971 RMK AO2
KDMH - Baltimore/Dwntwn, Maryland, USA
Distance from station: SW 12mi, 19km
Updated: Sun, 26-Apr-2015 1:54am EDT

 
Temperature: 45°F , 7°C
Dew Point: 37°F , 3°C
Humidity: 76%
Barometer: 29.71 inHg , 1006.1 hPa
2015/04/26 05:54 KDMH 260554Z AUTO 07/03 A2971 RMK AO1 SLP059 T00720028 10100 20067 56017
 
KBWI - Balto/Wash Intl, Maryland, USA
Distance from station: SSW 20mi, 33km
Updated: Sun, 26-Apr-2015 1:54am EDT
Overcast
Overcast
 Wind from NNW
Wind: NNW 5 mph , 7 km/h
Temperature: 43°F , 6°C
Wind Chill: 40°F , 4°C
Dew Point: 39°F , 4°C
Humidity: 87%
Barometer: 29.69 inHg , 1005.4 hPa
Clouds: Overcast
Visibility: 10 miles , 16 km
Cloud details: Partly cloudy 4700 ft
Overcast 7000 ft
2015/04/26 05:54 KBWI 260554Z 34004KT 10SM SCT047 OVC070 06/04 A2969 RMK AO2 SLP055 60018 T00560044 10072 20050 56020
KDMW - Carroll Cnty, Maryland, USA
Distance from station: WNW 30mi, 48km
Updated: Sat, 25-Apr-2015 11:45pm EDT
NOT Current
Overcast
Overcast
 Wind from WSW
Wind: WSW 3 mph , 6 km/h
Temperature: 39°F , 4°C
Dew Point: 36°F , 2°C
Humidity: 87%
Barometer: 29.71 inHg , 1006.1 hPa
Clouds: Overcast
Visibility: 10 miles , 16 km
Cloud details: Overcast 8500 ft
2015/04/26 03:45 KDMW 260345Z AUTO 25003KT 10SM OVC085 04/02 A2971 RMK AO2 LTG DSNT SE
 
KNAK - Annapolis/Naval, Maryland, USA
Distance from station: S 30mi, 48km
Updated: Sun, 26-Apr-2015 1:54am EDT
Overcast
Overcast
 Wind from calm
Wind: Calm
Temperature: 45°F , 7°C
Dew Point: 39°F , 4°C
Humidity: 81%
Barometer: 29.68 inHg , 1005.1 hPa
Clouds: Overcast
Visibility: 10 miles , 16 km
Cloud details: Overcast 7000 ft
2015/04/26 05:54 KNAK 260554Z AUTO 00000KT 10SM OVC070 07/04 A2968 RMK AO2 RAE01 SLP053 P0000 60017 T00670044 10072 20061 56028
KW29 - Stevensville, Maryland, USA
Distance from station: SSE 31mi, 50km
Updated: Sun, 26-Apr-2015 2:08am EDT

 Wind from calm
Wind: Calm
Barometer: 29.69 inHg , 1005.4 hPa
Visibility: 10 miles , 16 km
2015/04/26 06:08 KW29 260608Z AUTO 00000KT 10SM A2969 RMK AO1
 
KCGS - College Park, Maryland, USA
Distance from station: SW 38mi, 61km
Updated: Sun, 26-Apr-2015 2:05am EDT
Overcast
Overcast
 Wind from calm
Wind: Calm
Temperature: 43°F , 6°C
Dew Point: 41°F , 5°C
Humidity: 93%
Barometer: 29.69 inHg , 1005.4 hPa
Clouds: Overcast
Visibility: 7 miles , 11 km
Cloud details: Overcast 6000 ft
2015/04/26 06:05 KCGS 260605Z AUTO 00000KT 7SM OVC060 06/05 A2969 RMK AO1
KGAI - Gaithersburg, Maryland, USA
Distance from station: WSW 40mi, 65km
Updated: Sun, 26-Apr-2015 2:15am EDT
Overcast
Overcast
 Wind from calm
Wind: Calm
Temperature: 39°F , 4°C
Dew Point: 37°F , 3°C
Humidity: 93%
Barometer: 29.72 inHg , 1006.4 hPa
Clouds: Overcast
Visibility: 10 miles , 16 km
Cloud details: Overcast 5500 ft
2015/04/26 06:15 KGAI 260615Z AUTO 00000KT 10SM OVC055 04/03 A2972 RMK AO1
 
KTHV - York, Pennsylvania, USA
Distance from station: NNW 40mi, 65km
Updated: Sun, 26-Apr-2015 1:53am EDT
Clear
Clear
 Wind from WSW
Wind: WSW 3 mph , 6 km/h
Temperature: 36°F , 2°C
Dew Point: 30°F , -1°C
Humidity: 81%
Barometer: 29.70 inHg , 1005.8 hPa
Clouds: Clear
Visibility: 10 miles , 16 km
2015/04/26 05:53 KTHV 260553Z AUTO 25003KT 10SM CLR 02/M01 A2970 RMK AO2 SLP061 T00171006 10089 20017 56009
KFDK - Frederick, Maryland, USA
Distance from station: W 47mi, 75km
Updated: Sun, 26-Apr-2015 2:05am EDT
Overcast
Overcast
 Wind from calm
Wind: Calm
Temperature: 43°F , 6°C
Dew Point: 36°F , 2°C
Humidity: 76%
Barometer: 29.73 inHg , 1006.8 hPa
Clouds: Overcast
Visibility: 10 miles , 16 km
Cloud details: Overcast 7000 ft
2015/04/26 06:05 KFDK 260605Z AUTO 00000KT 10SM OVC070 06/02 A2973 RMK AO2
 
KESN - Easton/Newnam, Maryland, USA
Distance from station: SSE 48mi, 78km
Updated: Sun, 26-Apr-2015 2:25am EDT
Partly cloudy
Partly cloudy
 Wind from S
Wind: S 5 mph , 7 km/h
Temperature: 45°F , 7°C
Wind Chill: 42°F , 6°C
Dew Point: 45°F , 7°C
Humidity: 100%
Barometer: 29.71 inHg , 1006.1 hPa
Clouds: Partly cloudy
Visibility: 10 miles , 16 km
Cloud details: Partly cloudy 4900 ft
2015/04/26 06:25 KESN 260625Z AUTO 18004KT 10SM SCT049 07/07 A2971 RMK AO2 T00670067
KDCA - Washington/Natl, Washington D.c., USA
Distance from station: SW 49mi, 79km
Updated: Sun, 26-Apr-2015 1:52am EDT
Overcast
Overcast
 Wind from SSW
Wind: SSW 7 mph , 11 km/h
Temperature: 45°F , 7°C
Wind Chill: 41°F , 5°C
Dew Point: 39°F , 4°C
Humidity: 81%
Barometer: 29.70 inHg , 1005.8 hPa
Clouds: Overcast
Visibility: 10 miles , 16 km
Cloud details: Overcast 5000 ft
2015/04/26 05:52 KDCA 260552Z 20006KT 10SM OVC050 07/04 A2970 RMK AO2 SLP057 60020 T00720044 10078 20072 58021
 
KLNS - Lancaster, Pennsylvania, USA
Distance from station: N 49mi, 79km
Updated: Sun, 26-Apr-2015 1:53am EDT
Clear
Clear
 Wind from W
Wind: W 8 mph , 13 km/h
Temperature: 39°F , 4°C
Wind Chill: 33°F , 1°C
Dew Point: 28°F , -2°C
Humidity: 65%
Barometer: 29.68 inHg , 1005.1 hPa
Clouds: Clear
Visibility: 10 miles , 16 km
2015/04/26 05:53 KLNS 260553Z AUTO 27007KT 10SM CLR 04/M02 A2968 RMK AO2 SLP050 T00441017 10106 20039 58012
KILG - Wilmington, Delaware, USA
Distance from station: ENE 50mi, 81km
Updated: Sun, 26-Apr-2015 1:51am EDT
Partly cloudy
Partly cloudy
 Wind from WNW
Wind: WNW 5 mph , 7 km/h
Temperature: 45°F , 7°C
Wind Chill: 42°F , 6°C
Dew Point: 37°F , 3°C
Humidity: 76%
Barometer: 29.69 inHg , 1005.4 hPa
Clouds: Partly cloudy
Visibility: 10 miles , 16 km
Cloud details: Partly cloudy 11000 ft
2015/04/26 05:51 KILG 260551Z 30004KT 10SM SCT110 07/03 A2969 RMK AO2 SLP053 T00720033 10100 20072 56015